Time;durP1;ratioP1;P1;durP2;ratioP2;P2;SDS_P1;SDS_P2;PMS_P1;PMS_P2;Temp;Humidity;BMP_temperature;BMP_pressure;BME280_temperature;BME280_humidity;BME280_pressure;Samples;Min_cycle;Max_cycle;Signal;HPM_P1;HPM_P2
2022/11/16 00:01:04;;;;;;;7.15;3.17;;;;;;;;;;5085024;28;20075;-73
2022/11/16 00:03:31;;;;;;;6.53;2.70;;;;;;;;;;5076220;28;20044;-73
2022/11/16 00:05:58;;;;;;;6.07;2.95;;;;;;;;;;5071124;28;20056;-73
2022/11/16 00:08:26;;;;;;;6.45;2.83;;;;;;;;;;5074863;28;20052;-75
2022/11/16 00:10:52;;;;;;;6.60;2.65;;;;;;;;;;5073697;28;20075;-73
2022/11/16 00:13:20;;;;;;;5.57;2.72;;;;;;;;;;5076448;28;20055;-73
2022/11/16 00:15:53;;;;;;;6.80;3.05;;;;;;;;;;5071416;28;20308;-73
2022/11/16 00:18:22;;;;;;;11.85;2.80;;;;;;;;;;5079827;28;20139;-74
2022/11/16 00:20:48;;;;;;;5.88;2.60;;;;;;;;;;5071843;28;20060;-74
2022/11/16 00:23:15;;;;;;;6.38;2.60;;;;;;;;;;5074614;28;20059;-74
2022/11/16 00:25:42;;;;;;;7.72;2.97;;;;;;;;;;5078093;28;20056;-75
2022/11/16 00:28:09;;;;;;;6.43;2.95;;;;;;;;;;5050617;28;20159;-75
2022/11/16 00:30:36;;;;;;;6.65;2.97;;;;;;;;;;5066790;28;20059;-75
2022/11/16 00:33:03;;;;;;;6.00;2.50;;;;;;;;;;5076475;28;20048;-75
2022/11/16 00:35:32;;;;;;;6.43;2.78;;;;;;;;;;5075213;28;20044;-74
2022/11/16 00:37:59;;;;;;;6.20;3.13;;;;;;;;;;5079242;28;20058;-74
2022/11/16 00:40:26;;;;;;;7.07;3.20;;;;;;;;;;5077761;28;20047;-75
2022/11/16 00:42:52;;;;;;;5.15;2.78;;;;;;;;;;5083506;27;20055;-75
2022/11/16 00:45:19;;;;;;;7.45;3.00;;;;;;;;;;5067287;28;20056;-75
2022/11/16 00:47:46;;;;;;;6.22;3.15;;;;;;;;;;5069653;28;20075;-75
2022/11/16 00:50:12;;;;;;;7.10;3.25;;;;;;;;;;5051496;28;20048;-75
2022/11/16 00:52:40;;;;;;;7.47;3.17;;;;;;;;;;5071791;28;20048;-76
2022/11/16 00:55:07;;;;;;;6.78;3.22;;;;;;;;;;5075967;28;20210;-75
2022/11/16 00:57:35;;;;;;;5.90;2.95;;;;;;;;;;5070715;28;20059;-76
2022/11/16 01:00:01;;;;;;;8.52;3.17;;;;;;;;;;5074875;28;20155;-75
2022/11/16 01:02:29;;;;;;;6.25;2.80;;;;;;;;;;5076379;28;20119;-77
2022/11/16 01:04:55;;;;;;;7.82;2.97;;;;;;;;;;5066170;28;20055;-76
2022/11/16 01:07:22;;;;;;;6.53;2.63;;;;;;;;;;5065900;28;20109;-76
2022/11/16 01:09:50;;;;;;;6.75;3.28;;;;;;;;;;5078469;28;20051;-76
2022/11/16 01:12:16;;;;;;;6.65;2.95;;;;;;;;;;5065992;28;20048;-76
2022/11/16 01:14:44;;;;;;;6.07;2.80;;;;;;;;;;5064432;28;20096;-76
2022/11/16 01:17:11;;;;;;;5.82;2.95;;;;;;;;;;5054017;28;20056;-75
2022/11/16 01:19:38;;;;;;;7.30;3.08;;;;;;;;;;5057041;28;20056;-76
2022/11/16 01:22:05;;;;;;;6.88;3.40;;;;;;;;;;5074925;28;20074;-76
2022/11/16 01:24:31;;;;;;;6.45;2.90;;;;;;;;;;5073746;28;20051;-76
2022/11/16 01:27:00;;;;;;;8.98;2.92;;;;;;;;;;5078339;28;20060;-75
2022/11/16 01:29:27;;;;;;;7.03;3.03;;;;;;;;;;5078216;28;20052;-75
2022/11/16 01:31:54;;;;;;;10.38;3.28;;;;;;;;;;5075032;28;20072;-76
2022/11/16 01:34:21;;;;;;;5.85;3.05;;;;;;;;;;5077524;28;20062;-75
2022/11/16 01:36:48;;;;;;;7.25;3.05;;;;;;;;;;5069860;28;20052;-75
2022/11/16 01:39:15;;;;;;;5.20;2.50;;;;;;;;;;5077561;28;20105;-75
2022/11/16 01:41:43;;;;;;;8.13;3.38;;;;;;;;;;5075306;28;20126;-76
2022/11/16 01:44:24;;;;;;;7.63;3.10;;;;;;;;;;5079613;28;20043;-75
2022/11/16 01:46:53;;;;;;;8.48;3.58;;;;;;;;;;5075528;28;20138;-76
2022/11/16 01:49:21;;;;;;;7.70;2.55;;;;;;;;;;5080878;28;20051;-75
2022/11/16 01:51:51;;;;;;;7.72;3.88;;;;;;;;;;5068524;28;20059;-76
2022/11/16 01:54:18;;;;;;;7.50;3.45;;;;;;;;;;5077407;28;20068;-76
2022/11/16 01:56:48;;;;;;;8.32;3.25;;;;;;;;;;5052941;28;20048;-76
2022/11/16 01:59:16;;;;;;;7.45;3.20;;;;;;;;;;5079035;28;20077;-75
2022/11/16 02:01:42;;;;;;;6.25;3.28;;;;;;;;;;5070433;28;20048;-76
2022/11/16 02:04:12;;;;;;;8.20;3.53;;;;;;;;;;5067912;28;20054;-75
2022/11/16 02:06:49;;;;;;;8.00;3.45;;;;;;;;;;5073470;28;20138;-76
2022/11/16 02:12:12;;;;;;;7.97;3.53;;;;;;;;;;5081291;28;20056;-76
2022/11/16 02:14:46;;;;;;;8.60;3.53;;;;;;;;;;5021848;28;20143;-77
2022/11/16 02:17:20;;;;;;;7.38;3.47;;;;;;;;;;5066732;28;20051;-76
2022/11/16 02:20:00;;;;;;;7.07;3.25;;;;;;;;;;5076742;28;20120;-77
2022/11/16 02:22:36;;;;;;;6.55;3.35;;;;;;;;;;5069681;28;20472;-76
2022/11/16 02:25:04;;;;;;;8.02;3.30;;;;;;;;;;5059633;28;20108;-76
2022/11/16 02:27:50;;;;;;;7.72;3.53;;;;;;;;;;5081372;28;20074;-76
2022/11/16 02:30:20;;;;;;;7.78;3.40;;;;;;;;;;5079486;28;20055;-76
2022/11/16 02:32:50;;;;;;;7.53;3.50;;;;;;;;;;5076880;28;20051;-76
2022/11/16 02:35:19;;;;;;;6.68;3.30;;;;;;;;;;5086726;28;20062;-76
2022/11/16 02:37:48;;;;;;;7.95;3.70;;;;;;;;;;5085026;28;20058;-76
2022/11/16 02:40:16;;;;;;;6.32;3.10;;;;;;;;;;5080437;28;20062;-76
2022/11/16 02:42:45;;;;;;;7.78;3.65;;;;;;;;;;5069230;28;20129;-76
2022/11/16 02:45:15;;;;;;;7.15;3.53;;;;;;;;;;5066386;28;20060;-76
2022/11/16 02:47:44;;;;;;;6.70;3.17;;;;;;;;;;5083515;28;20050;-76
2022/11/16 02:50:14;;;;;;;7.03;3.45;;;;;;;;;;5081454;28;20067;-76
2022/11/16 02:52:41;;;;;;;6.88;3.42;;;;;;;;;;5073058;28;20052;-76
2022/11/16 02:55:08;;;;;;;7.43;3.35;;;;;;;;;;5061553;28;20058;-76
2022/11/16 02:57:39;;;;;;;7.93;3.08;;;;;;;;;;5073901;28;20052;-76
2022/11/16 03:00:07;;;;;;;5.68;2.88;;;;;;;;;;5079831;28;20058;-76
2022/11/16 03:02:39;;;;;;;7.45;3.60;;;;;;;;;;5067838;28;20090;-77
2022/11/16 03:05:09;;;;;;;7.35;3.17;;;;;;;;;;5079312;28;20783;-77
2022/11/16 03:07:39;;;;;;;6.32;3.00;;;;;;;;;;5089870;28;20069;-76
2022/11/16 03:10:06;;;;;;;5.05;2.90;;;;;;;;;;5070308;28;20083;-76
2022/11/16 03:12:34;;;;;;;8.00;3.08;;;;;;;;;;5084678;28;20135;-77
2022/11/16 03:15:02;;;;;;;8.25;3.53;;;;;;;;;;5068650;28;20054;-77
2022/11/16 03:17:31;;;;;;;7.03;3.28;;;;;;;;;;5067335;28;20142;-77
2022/11/16 03:19:59;;;;;;;5.85;3.13;;;;;;;;;;5082346;28;20321;-76
2022/11/16 03:22:26;;;;;;;;;;;;;;;;;;5080781;28;20062;-75
2022/11/16 03:24:54;;;;;;;6.07;2.85;;;;;;;;;;5066836;28;21628;-76
2022/11/16 03:27:24;;;;;;;6.00;2.67;;;;;;;;;;5060394;28;20052;-76
2022/11/16 03:29:55;;;;;;;5.93;3.20;;;;;;;;;;5081224;28;20073;-76
2022/11/16 03:32:26;;;;;;;6.18;2.70;;;;;;;;;;5074175;28;20052;-76
2022/11/16 03:34:56;;;;;;;6.68;3.13;;;;;;;;;;5074061;28;20052;-77
2022/11/16 03:37:24;;;;;;;6.05;2.92;;;;;;;;;;5070967;28;20047;-77
2022/11/16 03:39:52;;;;;;;6.38;3.20;;;;;;;;;;5083219;28;20055;-76
2022/11/16 03:42:22;;;;;;;6.32;3.00;;;;;;;;;;5076427;28;20066;-76
2022/11/16 03:44:49;;;;;;;5.38;2.60;;;;;;;;;;5077929;28;20079;-77
2022/11/16 03:47:16;;;;;;;7.00;3.50;;;;;;;;;;5079543;28;20108;-76
2022/11/16 03:49:44;;;;;;;6.13;2.88;;;;;;;;;;5100133;28;20267;-76
2022/11/16 03:52:11;;;;;;;6.07;2.70;;;;;;;;;;5090893;28;20138;-76
2022/11/16 03:54:37;;;;;;;5.57;3.00;;;;;;;;;;5074654;27;20198;-77
2022/11/16 03:57:04;;;;;;;6.78;3.13;;;;;;;;;;5079246;28;20051;-76
2022/11/16 03:59:32;;;;;;;6.30;3.30;;;;;;;;;;5082293;28;20595;-76
2022/11/16 04:01:59;;;;;;;5.43;2.85;;;;;;;;;;5080217;28;20146;-76
2022/11/16 04:28:12;;;;;;;5.60;2.88;;;;;;;;;;5080454;28;20043;-76
2022/11/16 04:29:21;;;;;;;4.97;2.33;;;;;;;;;;5072720;28;20054;-76
2022/11/16 04:40:12;;;;;;;4.90;2.40;;;;;;;;;;5056949;28;20055;-76
2022/11/16 04:42:38;;;;;;;6.13;2.47;;;;;;;;;;5070114;28;20058;-76
2022/11/16 04:47:51;;;;;;;5.70;2.47;;;;;;;;;;5078198;28;20050;-76
2022/11/16 04:50:18;;;;;;;5.50;2.50;;;;;;;;;;5075117;28;20060;-76
2022/11/16 04:52:45;;;;;;;4.72;2.25;;;;;;;;;;5067073;28;20053;-76
2022/11/16 04:55:12;;;;;;;4.93;2.60;;;;;;;;;;5077899;28;20086;-76
2022/11/16 04:57:39;;;;;;;4.80;2.38;;;;;;;;;;5070467;28;20419;-76
2022/11/16 05:00:09;;;;;;;6.15;2.40;;;;;;;;;;5073903;28;20064;-76
2022/11/16 05:02:36;;;;;;;6.53;2.13;;;;;;;;;;5077955;28;20115;-77
2022/11/16 05:05:10;;;;;;;4.28;2.13;;;;;;;;;;5073949;28;20067;-76
2022/11/16 05:07:37;;;;;;;4.00;1.98;;;;;;;;;;5078584;28;20072;-76
2022/11/16 05:10:05;;;;;;;4.65;2.40;;;;;;;;;;5074451;28;20063;-76
2022/11/16 05:12:32;;;;;;;4.10;2.20;;;;;;;;;;5075470;28;20079;-76
2022/11/16 05:15:01;;;;;;;5.43;2.20;;;;;;;;;;5072015;28;20055;-77
2022/11/16 05:17:28;;;;;;;6.40;2.30;;;;;;;;;;5078953;28;20059;-76
2022/11/16 05:22:40;;;;;;;4.40;1.92;;;;;;;;;;5070125;28;20056;-77
2022/11/16 05:25:09;;;;;;;3.30;1.90;;;;;;;;;;5072331;28;20121;-77
2022/11/16 05:27:36;;;;;;;4.47;2.00;;;;;;;;;;5073439;28;20044;-75
2022/11/16 05:30:10;;;;;;;4.07;2.03;;;;;;;;;;5058934;28;20513;-76
2022/11/16 05:32:37;;;;;;;4.63;1.92;;;;;;;;;;5042125;28;20057;-77
2022/11/16 05:35:06;;;;;;;4.60;2.08;;;;;;;;;;5057882;28;20068;-76
2022/11/16 05:37:35;;;;;;;4.60;1.98;;;;;;;;;;5072150;28;20052;-77
2022/11/16 05:40:04;;;;;;;3.03;1.70;;;;;;;;;;5077703;28;20060;-76
2022/11/16 05:42:31;;;;;;;3.80;1.90;;;;;;;;;;5074671;28;20458;-76
2022/11/16 05:44:57;;;;;;;5.38;1.98;;;;;;;;;;5075992;28;20055;-76
2022/11/16 05:47:24;;;;;;;4.32;2.03;;;;;;;;;;5057846;28;20043;-76
2022/11/16 05:49:51;;;;;;;5.60;1.90;;;;;;;;;;5052407;28;20044;-76
2022/11/16 05:52:17;;;;;;;5.13;2.03;;;;;;;;;;5077369;28;20043;-75
2022/11/16 05:54:44;;;;;;;3.53;1.80;;;;;;;;;;5072848;28;20039;-76
2022/11/16 05:57:14;;;;;;;3.22;1.63;;;;;;;;;;5077060;28;20097;-76
2022/11/16 05:59:41;;;;;;;3.67;1.88;;;;;;;;;;5066925;28;20220;-76
2022/11/16 06:02:07;;;;;;;4.43;2.00;;;;;;;;;;5077061;28;20051;-76
2022/11/16 06:04:34;;;;;;;3.92;2.00;;;;;;;;;;5073407;28;20060;-76
2022/11/16 06:07:01;;;;;;;4.68;2.13;;;;;;;;;;5058062;28;20053;-75
2022/11/16 06:09:27;;;;;;;5.15;2.13;;;;;;;;;;5069458;28;20139;-76
2022/11/16 06:11:54;;;;;;;5.15;2.20;;;;;;;;;;5085102;28;20039;-76
2022/11/16 06:14:23;;;;;;;4.00;1.95;;;;;;;;;;5083987;28;20047;-75
2022/11/16 06:16:49;;;;;;;;;;;;;;;;;;5058917;28;20048;-75
2022/11/16 06:19:16;;;;;;;4.63;2.22;;;;;;;;;;5080070;28;19920;-76
2022/11/16 06:21:43;;;;;;;4.60;2.25;;;;;;;;;;5076723;28;20060;-75
2022/11/16 06:24:12;;;;;;;4.63;2.00;;;;;;;;;;5074618;28;20109;-76
2022/11/16 06:26:39;;;;;;;5.65;2.30;;;;;;;;;;5067934;28;20068;-76
2022/11/16 06:29:06;;;;;;;4.25;2.25;;;;;;;;;;5080766;28;20150;-75
2022/11/16 06:31:34;;;;;;;4.53;2.17;;;;;;;;;;5083171;28;20052;-76
2022/11/16 06:34:01;;;;;;;5.13;2.05;;;;;;;;;;5070843;28;20075;-75
2022/11/16 06:36:28;;;;;;;4.47;2.25;;;;;;;;;;5070438;28;20048;-75
2022/11/16 06:38:55;;;;;;;3.55;1.90;;;;;;;;;;5070195;28;20043;-75
2022/11/16 06:41:21;;;;;;;3.70;2.00;;;;;;;;;;5075140;28;20130;-76
2022/11/16 06:43:48;;;;;;;4.88;2.20;;;;;;;;;;5058149;28;20083;-76
2022/11/16 06:46:15;;;;;;;5.00;2.47;;;;;;;;;;5068930;28;20116;-76
2022/11/16 06:48:43;;;;;;;4.78;2.20;;;;;;;;;;5068740;28;20146;-76
2022/11/16 06:51:09;;;;;;;5.68;2.20;;;;;;;;;;5059758;28;20063;-76
2022/11/16 06:53:36;;;;;;;4.38;2.20;;;;;;;;;;5075321;28;20057;-75
2022/11/16 06:56:04;;;;;;;4.40;1.92;;;;;;;;;;5080452;28;20464;-75
2022/11/16 06:58:36;;;;;;;3.95;2.00;;;;;;;;;;5076765;28;20067;-76
2022/11/16 07:01:06;;;;;;;4.95;1.98;;;;;;;;;;5060704;28;20064;-75
2022/11/16 07:03:33;;;;;;;4.53;1.83;;;;;;;;;;5040240;28;20075;-76
2022/11/16 07:06:04;;;;;;;3.45;1.85;;;;;;;;;;5051558;28;20164;-76
2022/11/16 07:08:32;;;;;;;4.93;2.13;;;;;;;;;;5049358;28;20060;-76
2022/11/16 07:11:01;;;;;;;3.88;2.00;;;;;;;;;;5070090;28;20143;-76
2022/11/16 07:13:28;;;;;;;4.93;2.20;;;;;;;;;;5071507;28;20051;-76
2022/11/16 07:16:00;;;;;;;6.18;2.10;;;;;;;;;;5076186;28;20128;-75
2022/11/16 07:18:27;;;;;;;3.30;1.70;;;;;;;;;;5076426;28;20051;-76
2022/11/16 07:20:54;;;;;;;3.65;1.75;;;;;;;;;;5070468;28;20058;-76
2022/11/16 07:23:25;;;;;;;5.53;2.05;;;;;;;;;;5083304;28;20055;-76
2022/11/16 07:25:59;;;;;;;3.28;1.85;;;;;;;;;;5076072;28;20044;-75
2022/11/16 07:28:28;;;;;;;3.60;1.70;;;;;;;;;;5068516;28;20052;-77
2022/11/16 07:30:57;;;;;;;4.45;1.80;;;;;;;;;;5063147;28;20054;-76
2022/11/16 07:33:27;;;;;;;3.63;1.73;;;;;;;;;;5077920;28;20051;-76
2022/11/16 07:35:54;;;;;;;3.42;1.70;;;;;;;;;;5076983;28;20050;-76
2022/11/16 07:38:22;;;;;;;3.38;1.58;;;;;;;;;;5078524;28;20071;-76
2022/11/16 07:40:49;;;;;;;4.38;1.70;;;;;;;;;;5055859;28;22060;-75
2022/11/16 07:43:16;;;;;;;3.90;1.83;;;;;;;;;;5069059;28;20070;-76
2022/11/16 07:45:43;;;;;;;4.30;1.73;;;;;;;;;;5065258;27;20139;-76
2022/11/16 07:48:12;;;;;;;3.60;1.90;;;;;;;;;;5084622;28;20051;-76
2022/11/16 07:50:39;;;;;;;3.35;1.50;;;;;;;;;;5075825;28;20350;-77
2022/11/16 07:53:06;;;;;;;3.25;1.67;;;;;;;;;;5060949;28;20056;-77
2022/11/16 07:55:34;;;;;;;4.07;1.67;;;;;;;;;;5078191;28;20043;-76
2022/11/16 07:58:02;;;;;;;3.58;1.60;;;;;;;;;;5079683;28;20056;-76
2022/11/16 08:00:31;;;;;;;3.10;1.45;;;;;;;;;;5054124;28;20047;-76
2022/11/16 08:03:00;;;;;;;2.92;1.48;;;;;;;;;;5051630;28;20412;-79
2022/11/16 08:05:29;;;;;;;5.70;1.60;;;;;;;;;;5082884;28;20047;-78
2022/11/16 08:07:56;;;;;;;6.03;1.70;;;;;;;;;;5074652;28;20146;-78
2022/11/16 08:10:33;;;;;;;4.78;1.75;;;;;;;;;;5078997;28;20063;-76
2022/11/16 08:13:04;;;;;;;3.47;1.67;;;;;;;;;;5048224;28;20076;-76
2022/11/16 08:15:31;;;;;;;4.10;1.20;;;;;;;;;;4996304;28;20070;-75
2022/11/16 08:23:06;;;;;;;3.58;1.58;;;;;;;;;;4993675;28;20684;-75
2022/11/16 08:25:34;;;;;;;3.08;1.38;;;;;;;;;;4920619;28;20062;-74
2022/11/16 08:33:10;;;;;;;2.58;1.40;;;;;;;;;;5011079;27;20454;-76
2022/11/16 08:35:38;;;;;;;4.10;1.40;;;;;;;;;;4972251;28;20148;-76
2022/11/16 08:45:48;;;;;;;4.05;1.20;;;;;;;;;;4954884;28;20130;-75
2022/11/16 08:48:15;;;;;;;3.63;1.75;;;;;;;;;;4920216;28;20091;-77
2022/11/16 08:50:54;;;;;;;;;;;;;;;;;;;;;
2022/11/16 08:53:23;;;;;;;3.83;1.60;;;;;;;;;;4873028;28;20055;-77
2022/11/16 09:01:12;;;;;;;6.30;1.55;;;;;;;;;;5001677;27;20460;-77
2022/11/16 09:03:39;;;;;;;3.42;1.48;;;;;;;;;;4912534;28;20051;-77
2022/11/16 09:06:06;;;;;;;3.97;1.70;;;;;;;;;;4895561;28;20056;-76
2022/11/16 09:16:10;;;;;;;4.40;1.80;;;;;;;;;;5008857;27;20506;-78
2022/11/16 09:18:37;;;;;;;4.70;1.50;;;;;;;;;;4969967;28;20061;-78
2022/11/16 09:25:55;;;;;;;3.30;1.33;;;;;;;;;;4926119;28;20047;-77
2022/11/16 09:28:22;;;;;;;2.75;1.45;;;;;;;;;;4949007;28;20302;-77
2022/11/16 09:30:50;;;;;;;4.35;1.65;;;;;;;;;;4942252;28;20132;-76
2022/11/16 09:33:19;;;;;;;4.60;1.90;;;;;;;;;;4940364;28;20588;-76
2022/11/16 09:35:45;;;;;;;4.18;1.40;;;;;;;;;;4984792;28;20065;-77
2022/11/16 09:38:12;;;;;;;5.45;1.65;;;;;;;;;;4981071;28;20057;-76
2022/11/16 09:40:40;;;;;;;5.82;1.90;;;;;;;;;;4978044;28;20042;-76
2022/11/16 09:43:13;;;;;;;5.72;1.58;;;;;;;;;;4983955;28;20049;-76
2022/11/16 09:45:43;;;;;;;4.90;1.60;;;;;;;;;;4979236;28;20072;-76
2022/11/16 09:48:12;;;;;;;4.15;1.30;;;;;;;;;;4996633;28;20058;-76
2022/11/16 09:50:42;;;;;;;4.07;1.33;;;;;;;;;;4991823;28;20161;-77
2022/11/16 09:53:16;;;;;;;3.42;1.40;;;;;;;;;;4984838;28;20049;-76
2022/11/16 09:55:46;;;;;;;5.22;1.63;;;;;;;;;;5009589;28;20177;-76
2022/11/16 09:58:15;;;;;;;2.75;1.30;;;;;;;;;;4982995;28;20271;-76
2022/11/16 10:00:44;;;;;;;3.30;1.52;;;;;;;;;;4984906;28;20046;-76
2022/11/16 10:03:12;;;;;;;3.78;1.48;;;;;;;;;;4953972;28;20082;-77
2022/11/16 10:05:41;;;;;;;4.80;1.90;;;;;;;;;;4976759;28;20079;-76
2022/11/16 10:08:17;;;;;;;6.85;1.48;;;;;;;;;;5007456;28;20145;-76
2022/11/16 10:10:51;;;;;;;3.70;1.50;;;;;;;;;;4995963;28;20127;-76
2022/11/16 10:13:25;;;;;;;6.13;1.80;;;;;;;;;;4998848;28;20063;-75
2022/11/16 10:15:59;;;;;;;4.95;1.60;;;;;;;;;;5009625;28;20049;-77
2022/11/16 10:18:40;;;;;;;5.40;1.90;;;;;;;;;;5002282;28;20049;-77
2022/11/16 10:21:15;;;;;;;3.75;1.50;;;;;;;;;;5012636;28;20085;-75
2022/11/16 10:23:53;;;;;;;4.60;1.45;;;;;;;;;;5005578;28;20416;-76
2022/11/16 10:26:25;;;;;;;2.88;1.23;;;;;;;;;;4993039;28;20068;-76
2022/11/16 10:29:00;;;;;;;3.78;1.38;;;;;;;;;;4979467;28;20057;-76
2022/11/16 10:31:31;;;;;;;4.10;1.30;;;;;;;;;;4990754;28;20076;-76
2022/11/16 10:34:00;;;;;;;3.45;1.17;;;;;;;;;;4996952;28;20098;-76
2022/11/16 10:36:26;;;;;;;;;;;;;;;;;;4985986;28;20063;-76
2022/11/16 10:38:56;;;;;;;6.63;1.33;;;;;;;;;;4980336;28;19933;-76
2022/11/16 10:41:26;;;;;;;3.33;1.25;;;;;;;;;;4996593;28;20060;-76
2022/11/16 10:43:53;;;;;;;4.72;1.35;;;;;;;;;;5002072;28;20049;-76
2022/11/16 10:46:22;;;;;;;5.03;1.40;;;;;;;;;;4988569;28;20127;-76
2022/11/16 10:48:54;;;;;;;2.90;1.48;;;;;;;;;;4984735;28;20058;-76
2022/11/16 10:51:21;;;;;;;5.82;1.55;;;;;;;;;;4996279;28;20050;-76
2022/11/16 10:53:48;;;;;;;4.82;1.30;;;;;;;;;;4997266;28;20220;-75
2022/11/16 10:56:19;;;;;;;5.32;1.40;;;;;;;;;;4996391;28;20129;-75
2022/11/16 10:58:53;;;;;;;2.65;1.20;;;;;;;;;;4985724;28;20128;-74
2022/11/16 11:01:29;;;;;;;3.40;1.30;;;;;;;;;;4996512;28;20140;-76
2022/11/16 11:03:56;;;;;;;4.90;1.20;;;;;;;;;;4981625;28;20059;-75
2022/11/16 11:06:25;;;;;;;5.78;1.10;;;;;;;;;;4996025;28;20109;-75
2022/11/16 11:08:52;;;;;;;3.05;1.05;;;;;;;;;;4988735;28;20045;-75
2022/11/16 11:14:09;;;;;;;5.35;1.23;;;;;;;;;;4991409;28;20093;-75
2022/11/16 11:16:36;;;;;;;6.63;1.40;;;;;;;;;;4993229;28;20054;-75
2022/11/16 11:19:17;;;;;;;1.60;0.88;;;;;;;;;;4991333;28;20115;-74
2022/11/16 11:21:44;;;;;;;3.05;1.23;;;;;;;;;;5008023;28;20064;-75
2022/11/16 11:24:15;;;;;;;2.28;1.15;;;;;;;;;;4999980;28;20061;-75
2022/11/16 11:26:43;;;;;;;4.72;1.42;;;;;;;;;;4987413;28;20053;-75
2022/11/16 11:29:20;;;;;;;7.03;1.48;;;;;;;;;;4991802;28;20061;-75
2022/11/16 11:31:48;;;;;;;4.60;1.38;;;;;;;;;;4981209;28;20389;-75
2022/11/16 11:34:17;;;;;;;4.90;1.27;;;;;;;;;;4998213;28;20064;-76
2022/11/16 11:36:46;;;;;;;4.30;1.13;;;;;;;;;;4988198;28;20046;-74
2022/11/16 11:39:27;;;;;;;4.38;1.00;;;;;;;;;;4993598;28;20058;-75
2022/11/16 11:42:02;;;;;;;4.55;1.00;;;;;;;;;;4981530;28;20064;-75
2022/11/16 11:44:31;;;;;;;3.60;1.15;;;;;;;;;;4992919;28;20148;-74
2022/11/16 11:47:06;;;;;;;4.63;1.30;;;;;;;;;;4987141;28;20049;-75
2022/11/16 11:49:35;;;;;;;3.65;1.10;;;;;;;;;;4976800;28;20058;-74
2022/11/16 11:52:05;;;;;;;5.47;1.17;;;;;;;;;;5006572;28;20201;-74
2022/11/16 11:54:33;;;;;;;2.55;1.00;;;;;;;;;;4988261;28;20053;-75
2022/11/16 11:57:03;;;;;;;3.72;1.13;;;;;;;;;;4976661;28;20062;-74
2022/11/16 11:59:30;;;;;;;3.83;0.90;;;;;;;;;;5010075;28;20054;-75
2022/11/16 12:02:12;;;;;;;3.20;0.82;;;;;;;;;;4992244;28;20082;-75
2022/11/16 12:05:03;;;;;;;4.45;1.30;;;;;;;;;;5003395;28;20404;-75
2022/11/16 12:07:39;;;;;;;7.35;1.10;;;;;;;;;;4938738;28;20081;-75
2022/11/16 12:10:12;;;;;;;3.67;1.05;;;;;;;;;;4995449;28;20057;-74
2022/11/16 12:12:47;;;;;;;4.63;1.23;;;;;;;;;;4984121;28;20072;-75
2022/11/16 12:15:29;;;;;;;3.50;1.15;;;;;;;;;;4994842;28;20053;-74
2022/11/16 12:17:59;;;;;;;2.72;1.20;;;;;;;;;;4996635;28;20140;-74
2022/11/16 12:20:33;;;;;;;5.25;1.35;;;;;;;;;;4993317;28;20192;-75
2022/11/16 12:23:13;;;;;;;3.75;1.10;;;;;;;;;;4994125;28;20062;-74
2022/11/16 12:25:44;;;;;;;6.88;1.50;;;;;;;;;;4994262;28;20115;-74
2022/11/16 12:28:20;;;;;;;6.03;1.40;;;;;;;;;;4991182;28;20082;-74
2022/11/16 12:30:57;;;;;;;8.32;1.52;;;;;;;;;;4988024;28;20498;-75
2022/11/16 12:33:28;;;;;;;4.95;1.20;;;;;;;;;;4988795;28;20404;-74
2022/11/16 12:36:00;;;;;;;5.80;1.60;;;;;;;;;;4995036;28;20046;-74
2022/11/16 12:38:42;;;;;;;5.47;1.65;;;;;;;;;;4989521;28;20057;-75
2022/11/16 12:41:17;;;;;;;7.05;1.60;;;;;;;;;;4994637;28;20065;-74
2022/11/16 12:43:50;;;;;;;5.20;1.45;;;;;;;;;;5010720;28;20173;-75
2022/11/16 12:46:38;;;;;;;4.60;1.25;;;;;;;;;;4991575;28;20054;-74
2022/11/16 12:49:30;;;;;;;4.65;1.08;;;;;;;;;;4987407;28;20085;-75
2022/11/16 12:52:05;;;;;;;2.60;0.98;;;;;;;;;;4993427;28;20057;-74
2022/11/16 12:54:41;;;;;;;7.03;1.27;;;;;;;;;;5002790;28;20053;-74
2022/11/16 12:57:12;;;;;;;4.00;1.02;;;;;;;;;;5001050;28;20112;-74
2022/11/16 12:59:51;;;;;;;3.70;1.15;;;;;;;;;;4978620;28;20080;-74
2022/11/16 13:02:28;;;;;;;1.85;0.88;;;;;;;;;;4996529;28;20125;-76
2022/11/16 13:04:58;;;;;;;4.65;1.20;;;;;;;;;;4990066;28;20053;-76
2022/11/16 13:07:26;;;;;;;6.13;1.42;;;;;;;;;;4994262;28;20084;-74
2022/11/16 13:09:53;;;;;;;;;;;;;;;;;;4990895;28;20536;-75
2022/11/16 13:12:22;;;;;;;3.63;1.13;;;;;;;;;;5010856;28;19925;-74
2022/11/16 13:14:53;;;;;;;3.97;1.10;;;;;;;;;;4989127;28;20058;-74
2022/11/16 13:17:21;;;;;;;3.10;0.95;;;;;;;;;;4994258;28;20061;-74
2022/11/16 13:19:58;;;;;;;3.17;1.10;;;;;;;;;;4995484;28;20165;-74
2022/11/16 13:22:27;;;;;;;6.65;1.10;;;;;;;;;;4996858;28;20041;-74
2022/11/16 13:24:57;;;;;;;4.82;1.08;;;;;;;;;;4985124;28;21406;-73
2022/11/16 13:27:31;;;;;;;7.45;1.10;;;;;;;;;;4987710;28;20064;-74
2022/11/16 13:30:01;;;;;;;3.90;1.02;;;;;;;;;;4989263;28;20132;-75
2022/11/16 13:32:33;;;;;;;5.75;1.02;;;;;;;;;;4983032;28;20046;-74
2022/11/16 13:35:01;;;;;;;7.18;1.23;;;;;;;;;;5007378;28;20089;-74
2022/11/16 13:37:43;;;;;;;2.72;0.82;;;;;;;;;;4986642;28;20065;-73
2022/11/16 13:40:13;;;;;;;3.22;1.00;;;;;;;;;;4983316;28;20054;-73
2022/11/16 13:42:43;;;;;;;4.10;0.82;;;;;;;;;;4990954;28;20078;-73
2022/11/16 13:45:16;;;;;;;9.38;0.90;;;;;;;;;;4997816;28;20057;-73
2022/11/16 13:47:48;;;;;;;5.13;1.10;;;;;;;;;;4986987;28;20100;-74
2022/11/16 13:50:20;;;;;;;3.85;0.90;;;;;;;;;;4989361;28;20056;-73
2022/11/16 13:52:51;;;;;;;1.83;0.80;;;;;;;;;;4979886;28;20050;-73
2022/11/16 13:55:26;;;;;;;3.22;1.02;;;;;;;;;;5006105;28;20049;-73
2022/11/16 13:57:55;;;;;;;1.35;0.77;;;;;;;;;;4987837;28;20132;-74
2022/11/16 14:00:29;;;;;;;2.00;0.80;;;;;;;;;;4989174;28;20133;-73
2022/11/16 14:03:17;;;;;;;2.72;0.90;;;;;;;;;;4995896;28;20060;-73
2022/11/16 14:05:45;;;;;;;3.22;0.85;;;;;;;;;;5004933;28;20071;-72
2022/11/16 14:08:32;;;;;;;3.17;0.98;;;;;;;;;;5002502;28;20061;-73
2022/11/16 14:10:59;;;;;;;2.67;0.85;;;;;;;;;;4994576;28;20073;-73
2022/11/16 14:13:41;;;;;;;2.53;0.80;;;;;;;;;;4997265;28;20468;-73
2022/11/16 14:16:27;;;;;;;1.80;0.70;;;;;;;;;;4996226;28;20073;-73
2022/11/16 14:18:57;;;;;;;3.10;1.00;;;;;;;;;;4997509;28;20121;-73
2022/11/16 14:21:35;;;;;;;3.03;0.90;;;;;;;;;;4991230;28;20068;-72
2022/11/16 14:24:11;;;;;;;1.63;0.80;;;;;;;;;;5001383;28;20050;-73
2022/11/16 14:26:42;;;;;;;4.88;0.77;;;;;;;;;;4994815;28;20042;-73
2022/11/16 14:29:19;;;;;;;2.35;0.90;;;;;;;;;;5011989;28;20488;-73
2022/11/16 14:31:47;;;;;;;1.50;0.73;;;;;;;;;;4999814;28;20053;-74
2022/11/16 14:34:18;;;;;;;1.60;0.82;;;;;;;;;;4988325;28;20056;-74
2022/11/16 14:36:46;;;;;;;1.38;0.77;;;;;;;;;;5002017;28;20366;-73
2022/11/16 14:39:30;;;;;;;2.72;1.10;;;;;;;;;;5012589;28;20057;-74
2022/11/16 14:41:58;;;;;;;3.13;0.93;;;;;;;;;;4994335;28;20045;-73
2022/11/16 14:44:26;;;;;;;;;;;;;;;;;;4995748;28;20054;-75
2022/11/16 14:46:53;;;;;;;2.80;0.80;;;;;;;;;;4982132;28;19925;-73
2022/11/16 14:49:22;;;;;;;3.55;0.98;;;;;;;;;;4984521;28;20053;-74
2022/11/16 14:51:54;;;;;;;2.38;0.90;;;;;;;;;;4990533;28;20049;-74
2022/11/16 14:54:25;;;;;;;1.48;0.80;;;;;;;;;;4976043;28;20054;-74
2022/11/16 14:56:56;;;;;;;2.95;0.90;;;;;;;;;;4991811;28;20917;-74
2022/11/16 14:59:23;;;;;;;4.03;0.80;;;;;;;;;;5010369;28;20057;-74
2022/11/16 15:01:50;;;;;;;3.75;0.80;;;;;;;;;;5026596;28;20526;-74
2022/11/16 15:04:17;;;;;;;3.90;0.90;;;;;;;;;;4996249;28;20110;-74
2022/11/16 15:06:48;;;;;;;1.75;0.70;;;;;;;;;;4989343;28;20381;-74
2022/11/16 15:09:19;;;;;;;3.58;1.17;;;;;;;;;;5013474;28;20066;-73
2022/11/16 15:14:47;;;;;;;2.67;0.80;;;;;;;;;;4906475;28;20081;-74
2022/11/16 15:17:16;;;;;;;1.98;0.80;;;;;;;;;;4901761;29;20056;-74
2022/11/16 15:19:43;;;;;;;3.90;0.75;;;;;;;;;;4956596;28;20077;-73
2022/11/16 15:22:17;;;;;;;6.20;0.90;;;;;;;;;;4995857;28;20057;-73
2022/11/16 15:24:43;;;;;;;2.42;0.63;;;;;;;;;;4999094;28;20053;-74
2022/11/16 15:27:16;;;;;;;3.05;0.88;;;;;;;;;;4987218;28;20057;-74
2022/11/16 15:29:42;;;;;;;3.42;1.00;;;;;;;;;;5007258;28;20085;-73
2022/11/16 15:32:13;;;;;;;4.90;0.90;;;;;;;;;;4996424;28;20080;-74
2022/11/16 15:34:39;;;;;;;5.72;0.93;;;;;;;;;;4980742;28;20046;-74
2022/11/16 15:37:10;;;;;;;2.13;0.80;;;;;;;;;;4992623;28;20074;-73
2022/11/16 15:39:38;;;;;;;1.73;0.73;;;;;;;;;;4984737;28;20052;-73
2022/11/16 15:42:06;;;;;;;1.67;0.90;;;;;;;;;;4984390;28;20058;-74
2022/11/16 15:44:35;;;;;;;5.53;0.80;;;;;;;;;;4979543;28;20173;-74
2022/11/16 15:47:05;;;;;;;2.83;1.00;;;;;;;;;;4979337;28;20060;-74
2022/11/16 15:49:33;;;;;;;4.00;1.30;;;;;;;;;;4987946;28;20058;-73
2022/11/16 15:52:00;;;;;;;2.97;0.95;;;;;;;;;;4975169;28;20061;-74
2022/11/16 15:55:02;;;;;;;2.65;0.88;;;;;;;;;;4948231;28;20050;-74
2022/11/16 15:57:22;;;;;;;2.50;0.88;;;;;;;;;;4983690;28;20500;-73
2022/11/16 15:59:49;;;;;;;3.03;0.82;;;;;;;;;;4974752;28;20059;-73
2022/11/16 16:02:17;;;;;;;2.65;0.82;;;;;;;;;;4988215;28;20077;-73
2022/11/16 16:04:44;;;;;;;1.77;0.80;;;;;;;;;;5002540;28;20532;-74
2022/11/16 16:07:12;;;;;;;4.43;1.20;;;;;;;;;;4995458;28;20061;-73
2022/11/16 16:09:40;;;;;;;4.75;1.10;;;;;;;;;;4980371;28;20554;-73
2022/11/16 16:12:16;;;;;;;4.93;1.10;;;;;;;;;;4991914;28;20046;-73
2022/11/16 16:14:48;;;;;;;1.50;0.82;;;;;;;;;;4979537;28;20552;-73
2022/11/16 16:17:22;;;;;;;3.92;0.88;;;;;;;;;;4992142;28;20064;-76
2022/11/16 16:19:54;;;;;;;2.83;1.15;;;;;;;;;;4996084;28;20165;-73
2022/11/16 16:22:37;;;;;;;3.67;0.85;;;;;;;;;;4959585;28;20076;-74